Time;durP1;ratioP1;P1;durP2;ratioP2;P2;SDS_P1;SDS_P2;PMS_P1;PMS_P2;Temp;Humidity;BMP_temperature;BMP_pressure;BME280_temperature;BME280_humidity;BME280_pressure;Samples;Min_cycle;Max_cycle;Signal;HPM_P1;HPM_P2
2023/05/08 00:01:58;;;;;;;3.05;2.33;;;20.90;49.10;;;;;;5089275;28;20020;-74
2023/05/08 00:04:24;;;;;;;3.75;2.30;;;20.80;49.10;;;;;;5089587;28;20028;-74
2023/05/08 00:06:53;;;;;;;5.85;2.28;;;20.90;49.20;;;;;;5088373;28;20515;-74
2023/05/08 00:09:19;;;;;;;4.60;2.38;;;20.90;49.20;;;;;;5089605;28;20076;-73
2023/05/08 00:11:45;;;;;;;5.40;2.47;;;20.90;49.20;;;;;;5088696;28;20480;-74
2023/05/08 00:14:11;;;;;;;4.97;2.00;;;20.90;49.20;;;;;;5088575;28;20076;-74
2023/05/08 00:16:37;;;;;;;4.32;2.40;;;20.90;49.30;;;;;;5089764;28;20132;-74
2023/05/08 00:19:03;;;;;;;5.57;2.25;;;20.90;49.30;;;;;;5088245;28;20123;-74
2023/05/08 00:21:29;;;;;;;4.45;2.38;;;20.90;49.30;;;;;;5090753;28;20031;-74
2023/05/08 00:23:55;;;;;;;4.63;2.38;;;20.90;49.40;;;;;;5089615;28;20016;-74
2023/05/08 00:26:21;;;;;;;3.45;2.33;;;20.90;49.40;;;;;;5092080;28;20366;-74
2023/05/08 00:28:47;;;;;;;5.78;2.22;;;20.90;49.50;;;;;;5093564;28;20508;-74
2023/05/08 00:31:13;;;;;;;3.72;2.08;;;20.90;49.50;;;;;;5095030;28;20032;-74
2023/05/08 00:33:39;;;;;;;8.93;2.60;;;20.90;49.40;;;;;;5094124;28;20032;-74
2023/05/08 00:36:05;;;;;;;7.50;2.55;;;20.90;49.40;;;;;;5094092;28;20028;-75
2023/05/08 00:38:32;;;;;;;16.98;3.10;;;20.90;49.70;;;;;;5077394;28;20040;-75
2023/05/08 00:40:59;;;;;;;11.20;2.80;;;20.90;49.80;;;;;;5096732;28;20035;-75
2023/05/08 00:43:27;;;;;;;9.02;2.63;;;20.90;50.30;;;;;;5097521;28;20454;-76
2023/05/08 00:45:58;;;;;;;11.00;2.78;;;20.90;50.00;;;;;;5099504;28;20024;-75
2023/05/08 00:48:26;;;;;;;17.95;2.70;;;20.90;50.70;;;;;;5081885;28;20812;-75
2023/05/08 00:50:54;;;;;;;13.75;2.63;;;20.90;50.20;;;;;;5096676;28;20038;-75
2023/05/08 00:53:21;;;;;;;8.75;2.53;;;20.90;50.20;;;;;;5099650;28;20494;-76
2023/05/08 00:55:50;;;;;;;8.18;2.38;;;20.90;50.10;;;;;;5097600;28;20477;-75
2023/05/08 00:58:16;;;;;;;11.07;2.60;;;20.80;50.20;;;;;;5100445;28;20032;-74
2023/05/08 01:00:44;;;;;;;8.32;2.47;;;20.90;50.20;;;;;;5099501;28;20067;-75
2023/05/08 01:03:11;;;;;;;11.95;2.63;;;20.90;50.10;;;;;;5098960;28;20035;-75
2023/05/08 01:05:37;;;;;;;6.15;2.45;;;20.90;50.20;;;;;;5094831;28;20024;-75
2023/05/08 01:08:03;;;;;;;9.85;2.83;;;20.80;50.00;;;;;;5094464;28;20027;-74
2023/05/08 01:10:45;;;;;;;5.85;2.28;;;20.90;50.10;;;;;;5093938;28;20403;-75
2023/05/08 01:13:33;;;;;;;9.13;2.35;;;20.80;50.30;;;;;;5097160;28;20508;-75
2023/05/08 01:16:11;;;;;;;9.87;2.80;;;20.80;50.30;;;;;;5093818;28;20050;-75
2023/05/08 01:18:44;;;;;;;6.05;2.70;;;20.80;50.30;;;;;;5093244;28;20059;-76
2023/05/08 01:21:14;;;;;;;6.90;2.28;;;20.80;50.30;;;;;;5092936;28;20166;-77
2023/05/08 01:24:02;;;;;;;9.00;2.60;;;20.80;50.30;;;;;;5093110;28;20511;-77
2023/05/08 01:27:04;;;;;;;10.73;2.78;;;20.80;50.30;;;;;;5092990;28;20028;-77
2023/05/08 01:30:03;;;;;;;6.03;2.70;;;20.80;50.30;;;;;;5093024;28;20042;-77
2023/05/08 01:32:37;;;;;;;11.15;2.63;;;20.80;50.40;;;;;;5092349;28;20433;-76
2023/05/08 01:35:31;;;;;;;5.82;2.50;;;20.80;50.30;;;;;;5076698;28;20036;-76
2023/05/08 01:38:09;;;;;;;14.30;2.95;;;20.80;50.60;;;;;;5094143;28;20031;-77
2023/05/08 01:40:52;;;;;;;9.30;2.80;;;20.80;50.40;;;;;;5094355;28;20397;-77
2023/05/08 01:43:40;;;;;;;4.55;2.40;;;20.80;50.50;;;;;;5093867;28;20659;-77
2023/05/08 01:46:13;;;;;;;5.47;2.10;;;20.80;50.40;;;;;;5093587;28;20028;-78
2023/05/08 01:48:48;;;;;;;10.93;3.00;;;20.80;50.40;;;;;;5059778;28;20512;-76
2023/05/08 01:51:19;;;;;;;3.45;2.25;;;20.80;50.40;;;;;;5092911;28;20024;-77
2023/05/08 01:53:50;;;;;;;8.65;2.63;;;20.80;50.50;;;;;;5094234;28;20098;-77
2023/05/08 01:56:24;;;;;;;5.88;2.60;;;20.80;50.60;;;;;;5093253;28;20115;-77
2023/05/08 01:58:51;;;;;;;7.05;2.65;;;20.80;50.50;;;;;;5076537;28;20036;-76
2023/05/08 02:01:21;;;;;;;6.13;2.50;;;20.80;50.40;;;;;;5092191;28;20031;-76
2023/05/08 02:03:48;;;;;;;6.47;2.42;;;20.80;50.40;;;;;;5092134;28;20027;-76
2023/05/08 02:06:18;;;;;;;6.55;2.63;;;20.80;50.50;;;;;;5092162;28;20107;-77
2023/05/08 02:08:45;;;;;;;4.60;2.35;;;20.80;50.50;;;;;;5092159;28;20035;-76
2023/05/08 02:11:13;;;;;;;5.20;2.25;;;20.70;50.50;;;;;;5074847;28;20031;-75
2023/05/08 02:13:41;;;;;;;5.75;2.55;;;20.80;50.50;;;;;;5092189;28;20040;-76
2023/05/08 02:16:09;;;;;;;4.80;2.15;;;20.80;50.40;;;;;;5092101;28;20031;-76
2023/05/08 02:18:36;;;;;;;5.70;2.60;;;20.80;50.50;;;;;;5093226;28;20031;-76
2023/05/08 02:21:05;;;;;;;6.10;2.45;;;20.70;50.40;;;;;;5091402;28;20034;-76
2023/05/08 02:23:33;;;;;;;5.10;2.13;;;20.70;50.40;;;;;;5091851;28;20024;-76
2023/05/08 02:26:02;;;;;;;4.70;2.78;;;20.70;50.50;;;;;;5074966;28;20035;-77
2023/05/08 02:28:29;;;;;;;4.75;2.72;;;20.80;50.50;;;;;;5091707;28;20076;-76
2023/05/08 02:30:59;;;;;;;5.47;2.53;;;20.70;50.50;;;;;;5092545;28;20541;-76
2023/05/08 02:33:26;;;;;;;6.15;2.45;;;20.70;50.50;;;;;;5091547;28;20028;-77
2023/05/08 02:35:54;;;;;;;5.43;2.70;;;20.70;50.50;;;;;;5091665;28;20031;-76
2023/05/08 02:38:21;;;;;;;5.40;2.40;;;20.70;50.50;;;;;;5092710;28;20040;-77
2023/05/08 02:40:51;;;;;;;4.03;2.30;;;20.70;50.50;;;;;;5092640;28;20031;-76
2023/05/08 02:43:17;;;;;;;5.75;2.38;;;20.80;50.60;;;;;;5090818;28;20028;-76
2023/05/08 02:45:58;;;;;;;4.43;2.22;;;20.70;50.50;;;;;;5091129;28;20615;-76
2023/05/08 02:48:35;;;;;;;4.60;2.50;;;20.70;50.60;;;;;;5091346;28;20035;-76
2023/05/08 02:51:09;;;;;;;4.45;2.72;;;20.80;50.70;;;;;;5090979;28;20020;-76
2023/05/08 02:54:05;;;;;;;8.73;2.40;;;20.80;50.70;;;;;;5074578;28;20031;-76
2023/05/08 02:56:51;;;;;;;6.97;2.20;;;20.80;50.70;;;;;;5055801;28;20083;-76
2023/05/08 02:59:21;;;;;;;4.90;2.35;;;20.80;50.70;;;;;;5092369;28;20023;-76
2023/05/08 03:01:52;;;;;;;7.20;2.92;;;20.80;50.70;;;;;;5090752;28;20024;-76
2023/05/08 03:04:44;;;;;;;5.20;2.60;;;20.80;50.70;;;;;;5091173;28;20032;-76
2023/05/08 03:07:11;;;;;;;9.43;3.00;;;20.70;50.70;;;;;;5090497;28;20040;-76
2023/05/08 03:09:46;;;;;;;3.40;2.40;;;20.80;50.70;;;;;;5090930;28;20035;-76
2023/05/08 03:12:16;;;;;;;4.47;2.50;;;20.70;50.70;;;;;;5090490;28;20073;-76
2023/05/08 03:14:51;;;;;;;4.03;2.45;;;20.70;50.70;;;;;;5074087;28;20031;-76
2023/05/08 03:17:19;;;;;;;4.53;2.40;;;20.70;50.70;;;;;;5090689;28;20031;-76
2023/05/08 03:19:51;;;;;;;4.22;2.60;;;20.70;50.80;;;;;;5090801;28;20032;-76
2023/05/08 03:22:19;;;;;;;5.50;2.70;;;20.70;50.80;;;;;;5090518;28;20099;-76
2023/05/08 03:24:47;;;;;;;5.95;2.60;;;20.70;50.80;;;;;;5073994;28;20095;-76
2023/05/08 03:27:14;;;;;;;4.00;2.33;;;20.80;50.80;;;;;;5090572;28;20027;-76
2023/05/08 03:29:42;;;;;;;4.40;2.70;;;20.70;50.80;;;;;;5073794;28;20024;-76
2023/05/08 03:32:10;;;;;;;4.35;2.45;;;20.70;50.80;;;;;;5090501;28;20053;-77
2023/05/08 03:34:37;;;;;;;6.70;2.83;;;20.70;50.80;;;;;;5092139;28;20063;-76
2023/05/08 03:37:03;;;;;;;4.95;2.35;;;20.70;50.70;;;;;;5090542;28;20374;-76
2023/05/08 03:39:29;;;;;;;4.07;2.53;;;20.70;50.80;;;;;;5090406;28;20120;-76
2023/05/08 03:41:56;;;;;;;4.30;2.75;;;20.70;50.80;;;;;;5090150;28;20023;-76
2023/05/08 03:44:24;;;;;;;7.55;2.42;;;20.70;50.80;;;;;;5090390;28;20077;-76
2023/05/08 03:46:54;;;;;;;9.43;3.13;;;20.70;50.80;;;;;;5090335;28;20028;-76
2023/05/08 03:49:22;;;;;;;5.45;2.42;;;20.70;50.80;;;;;;5090368;28;20058;-77
2023/05/08 03:51:48;;;;;;;6.75;3.17;;;20.70;50.80;;;;;;5091401;28;20066;-76
2023/05/08 03:54:14;;;;;;;5.75;2.83;;;20.70;50.80;;;;;;5073393;28;20032;-76
2023/05/08 03:56:40;;;;;;;4.60;2.75;;;20.70;50.80;;;;;;5090164;28;20077;-76
2023/05/08 03:59:23;;;;;;;6.88;2.72;;;20.70;50.80;;;;;;5090117;28;20081;-76
2023/05/08 04:02:13;;;;;;;7.43;2.80;;;20.70;50.80;;;;;;5091141;28;20386;-75
2023/05/08 04:04:40;;;;;;;5.57;3.40;;;20.80;50.80;;;;;;5090428;28;20028;-75
2023/05/08 04:07:14;;;;;;;7.10;2.80;;;20.70;50.60;;;;;;5090037;28;20111;-75
2023/05/08 04:09:59;;;;;;;4.93;2.88;;;20.80;50.80;;;;;;5090087;28;20112;-75
2023/05/08 04:12:32;;;;;;;6.70;2.92;;;20.70;50.60;;;;;;5089796;28;20043;-75
2023/05/08 04:15:10;;;;;;;6.32;2.55;;;20.70;50.60;;;;;;5090102;28;20028;-75
2023/05/08 04:17:58;;;;;;;5.57;2.78;;;20.70;50.80;;;;;;5090089;28;20102;-75
2023/05/08 04:20:28;;;;;;;5.22;2.80;;;20.70;50.70;;;;;;5090076;28;20066;-75
2023/05/08 04:22:56;;;;;;;5.22;2.65;;;20.70;50.80;;;;;;5089722;28;20494;-75
2023/05/08 04:25:24;;;;;;;6.05;2.63;;;20.70;50.80;;;;;;5090021;28;20032;-76
2023/05/08 04:27:53;;;;;;;4.75;2.75;;;20.70;50.90;;;;;;5090061;28;20052;-75
2023/05/08 04:30:20;;;;;;;6.90;2.93;;;20.70;50.70;;;;;;5090324;28;20435;-76
2023/05/08 04:32:47;;;;;;;5.28;2.95;;;20.70;50.70;;;;;;5089543;28;20024;-75
2023/05/08 04:35:15;;;;;;;7.53;2.83;;;20.70;51.30;;;;;;5091103;28;20510;-75
2023/05/08 04:37:44;;;;;;;5.88;3.10;;;20.70;50.60;;;;;;5089848;28;20035;-75
2023/05/08 04:40:10;;;;;;;7.15;3.40;;;20.70;50.60;;;;;;5089828;28;20107;-75
2023/05/08 04:42:38;;;;;;;5.35;2.72;;;20.70;50.70;;;;;;5089315;28;20431;-75
2023/05/08 04:45:05;;;;;;;7.28;3.85;;;20.80;50.60;;;;;;5056536;28;20035;-76
2023/05/08 04:47:31;;;;;;;6.97;3.38;;;20.70;50.60;;;;;;5072865;28;20441;-75
2023/05/08 04:49:57;;;;;;;7.10;3.90;;;20.80;50.80;;;;;;5090033;28;20082;-76
2023/05/08 04:52:24;;;;;;;7.32;3.80;;;20.80;50.60;;;;;;5089364;28;20028;-76
2023/05/08 04:54:50;;;;;;;8.55;4.03;;;20.80;50.50;;;;;;5089900;28;20027;-76
2023/05/08 04:57:16;;;;;;;8.13;3.65;;;20.80;50.60;;;;;;5090025;28;20030;-76
2023/05/08 04:59:42;;;;;;;7.03;3.58;;;20.80;50.40;;;;;;5090091;28;20105;-76
2023/05/08 05:02:08;;;;;;;6.35;3.53;;;20.80;50.60;;;;;;5089534;28;20024;-76
2023/05/08 05:04:35;;;;;;;7.60;3.83;;;20.80;50.70;;;;;;5089706;28;20528;-76
2023/05/08 05:07:04;;;;;;;7.53;3.50;;;20.80;50.60;;;;;;5090487;28;20032;-76
2023/05/08 05:09:35;;;;;;;7.35;3.50;;;20.80;50.60;;;;;;5093061;28;20110;-76
2023/05/08 05:12:03;;;;;;;9.55;3.53;;;20.80;50.60;;;;;;5093069;28;20441;-76
2023/05/08 05:14:29;;;;;;;6.32;3.78;;;20.80;50.60;;;;;;5093087;28;20404;-76
2023/05/08 05:16:55;;;;;;;4.90;3.15;;;20.80;50.70;;;;;;5076283;28;20028;-77
2023/05/08 05:19:21;;;;;;;14.43;3.45;;;20.80;50.60;;;;;;5093012;28;20433;-76
2023/05/08 05:21:47;;;;;;;5.72;3.10;;;20.80;50.70;;;;;;5075980;28;20103;-77
2023/05/08 05:24:14;;;;;;;8.35;3.33;;;20.80;50.70;;;;;;5092906;28;20029;-77
2023/05/08 05:26:40;;;;;;;7.53;3.55;;;20.80;50.80;;;;;;5093006;28;20035;-77
2023/05/08 05:29:07;;;;;;;6.15;3.53;;;20.80;50.80;;;;;;5092849;28;20028;-77
2023/05/08 05:31:33;;;;;;;7.93;3.78;;;20.80;50.80;;;;;;5092436;28;20024;-77
2023/05/08 05:33:59;;;;;;;7.05;3.65;;;20.80;50.60;;;;;;5094133;28;20034;-76
2023/05/08 05:36:25;;;;;;;5.65;3.28;;;20.80;50.40;;;;;;5092761;28;20477;-76
2023/05/08 05:38:51;;;;;;;7.20;3.20;;;20.80;50.70;;;;;;5092698;28;20082;-76
2023/05/08 05:41:17;;;;;;;7.25;3.35;;;20.80;50.60;;;;;;5092196;28;20048;-76
2023/05/08 05:43:43;;;;;;;7.72;3.10;;;20.80;50.60;;;;;;5092453;28;20058;-76
2023/05/08 05:46:09;;;;;;;8.05;3.33;;;20.80;50.60;;;;;;5092551;28;20050;-76
2023/05/08 05:48:37;;;;;;;9.65;3.30;;;20.80;50.70;;;;;;5092498;28;20074;-76
2023/05/08 05:51:03;;;;;;;6.88;3.45;;;20.80;50.70;;;;;;5092106;28;20040;-76
2023/05/08 05:53:29;;;;;;;7.00;3.50;;;20.80;50.60;;;;;;5092383;28;20036;-76
2023/05/08 05:55:55;;;;;;;6.22;3.67;;;20.80;50.30;;;;;;5092434;28;20161;-76
2023/05/08 05:58:20;;;;;;;6.82;3.55;;;20.80;50.70;;;;;;5092223;28;20251;-76
2023/05/08 06:00:47;;;;;;;10.10;3.95;;;20.80;50.50;;;;;;5091991;28;20031;-77
2023/05/08 06:03:13;;;;;;;7.82;3.85;;;20.80;50.40;;;;;;5075243;28;20028;-76
2023/05/08 06:05:40;;;;;;;7.15;3.55;;;20.80;50.40;;;;;;5092088;28;20583;-76
2023/05/08 06:08:07;;;;;;;6.68;3.58;;;20.80;50.30;;;;;;5092097;28;20024;-76
2023/05/08 06:10:33;;;;;;;6.45;3.47;;;20.80;50.50;;;;;;5093158;28;20025;-76
2023/05/08 06:12:59;;;;;;;9.90;4.00;;;20.80;50.50;;;;;;5092941;28;20210;-76
2023/05/08 06:15:25;;;;;;;6.93;3.58;;;20.80;50.50;;;;;;5092024;28;20028;-77
2023/05/08 06:17:53;;;;;;;7.07;3.85;;;20.80;50.40;;;;;;5091869;28;20036;-77
2023/05/08 06:20:18;;;;;;;8.43;4.05;;;20.90;50.60;;;;;;5091755;28;20079;-77
2023/05/08 06:22:44;;;;;;;9.60;3.75;;;20.90;50.60;;;;;;5091526;28;20036;-76
2023/05/08 06:25:10;;;;;;;6.82;4.00;;;20.90;50.60;;;;;;5093260;28;20020;-76
2023/05/08 06:27:36;;;;;;;10.13;4.03;;;20.90;50.80;;;;;;5093002;28;20381;-76
2023/05/08 06:30:06;;;;;;;6.88;3.67;;;20.90;50.60;;;;;;5092818;28;20024;-76
2023/05/08 06:32:32;;;;;;;;;;;20.90;50.60;;;;;;5091687;28;20116;-76
2023/05/08 06:34:58;;;;;;;7.43;3.42;;;20.90;51.40;;;;;;5092872;28;19986;-77
2023/05/08 06:37:23;;;;;;;8.38;3.42;;;20.90;50.80;;;;;;5092734;28;20067;-76
2023/05/08 06:39:49;;;;;;;5.32;3.33;;;20.90;50.90;;;;;;5091496;28;20039;-77
2023/05/08 06:42:15;;;;;;;8.05;3.72;;;20.90;50.80;;;;;;5092368;28;20477;-77
2023/05/08 06:44:44;;;;;;;7.72;3.53;;;20.90;50.70;;;;;;5091605;28;20035;-76
2023/05/08 06:47:10;;;;;;;5.95;3.55;;;20.90;50.90;;;;;;5092619;28;20483;-76
2023/05/08 06:49:36;;;;;;;5.10;3.40;;;20.90;50.70;;;;;;5092375;28;20039;-77
2023/05/08 06:52:02;;;;;;;9.27;3.85;;;20.90;50.70;;;;;;5092194;28;20509;-76
2023/05/08 06:54:28;;;;;;;11.02;3.70;;;20.90;51.40;;;;;;5092457;28;20150;-77
2023/05/08 06:56:54;;;;;;;9.75;4.20;;;20.90;51.30;;;;;;5092563;28;20051;-76
2023/05/08 06:59:22;;;;;;;6.57;3.70;;;20.90;52.20;;;;;;5092323;28;20111;-76
2023/05/08 07:01:48;;;;;;;9.10;3.60;;;21.00;52.30;;;;;;5090766;28;20063;-76
2023/05/08 07:04:13;;;;;;;9.68;3.35;;;20.90;52.40;;;;;;5092115;28;20032;-76
2023/05/08 07:06:39;;;;;;;6.63;3.88;;;21.00;52.20;;;;;;5092275;28;20031;-75
2023/05/08 07:09:05;;;;;;;6.85;3.47;;;20.90;51.90;;;;;;5091988;28;20020;-76
2023/05/08 07:11:31;;;;;;;10.02;3.70;;;20.90;52.20;;;;;;5073799;28;20064;-74
2023/05/08 07:13:57;;;;;;;7.38;3.45;;;21.00;53.10;;;;;;5090845;28;20363;-75
2023/05/08 07:16:22;;;;;;;7.63;3.78;;;21.00;52.40;;;;;;5092217;28;20106;-75
2023/05/08 07:18:48;;;;;;;6.82;3.38;;;21.00;52.60;;;;;;5092014;28;20032;-75
2023/05/08 07:21:16;;;;;;;9.75;3.92;;;21.00;52.70;;;;;;5091549;28;20473;-76
2023/05/08 07:23:42;;;;;;;7.53;3.38;;;20.90;52.70;;;;;;5092007;28;20035;-76
2023/05/08 07:26:08;;;;;;;12.32;3.67;;;21.00;52.90;;;;;;5091808;28;20024;-76
2023/05/08 07:28:34;;;;;;;5.70;3.20;;;20.90;52.80;;;;;;5091795;28;20111;-75
2023/05/08 07:31:05;;;;;;;15.35;4.22;;;21.00;52.90;;;;;;5090969;28;20024;-75
2023/05/08 07:33:32;;;;;;;6.72;3.47;;;21.00;52.90;;;;;;5091861;28;20062;-76
2023/05/08 07:35:59;;;;;;;8.23;4.07;;;21.00;52.90;;;;;;5091901;28;20485;-75
2023/05/08 07:38:25;;;;;;;7.13;3.47;;;21.00;52.90;;;;;;5091885;28;20338;-76
2023/05/08 07:40:53;;;;;;;5.43;3.35;;;21.00;52.90;;;;;;5072896;28;20035;-76
2023/05/08 07:43:19;;;;;;;7.05;3.97;;;21.00;53.00;;;;;;5091598;28;20048;-76
2023/05/08 07:45:44;;;;;;;6.20;3.47;;;21.00;53.00;;;;;;5091467;28;20070;-76
2023/05/08 07:48:10;;;;;;;6.57;3.22;;;21.00;53.00;;;;;;5091564;28;20024;-76
2023/05/08 07:50:36;;;;;;;7.03;3.78;;;21.00;53.10;;;;;;5091434;28;20032;-76
2023/05/08 07:53:02;;;;;;;9.40;4.18;;;21.00;53.00;;;;;;5091141;28;20024;-74
2023/05/08 07:55:28;;;;;;;7.65;4.00;;;21.10;52.70;;;;;;5091375;28;20077;-76
2023/05/08 07:57:53;;;;;;;16.73;4.72;;;21.10;53.10;;;;;;5091526;28;20029;-75
2023/05/08 08:00:19;;;;;;;15.35;3.90;;;21.10;53.00;;;;;;5091448;28;20487;-74
2023/05/08 08:02:45;;;;;;;10.90;3.92;;;21.10;52.90;;;;;;5091264;28;20423;-75
2023/05/08 08:05:11;;;;;;;9.65;4.22;;;21.10;52.90;;;;;;5090048;28;20021;-74
2023/05/08 08:07:37;;;;;;;9.57;4.13;;;21.10;52.90;;;;;;5091365;28;20482;-74
2023/05/08 08:10:03;;;;;;;11.38;3.80;;;21.10;52.80;;;;;;5091126;28;20042;-74
2023/05/08 08:12:30;;;;;;;5.97;3.35;;;21.10;52.80;;;;;;5089612;28;20085;-79
2023/05/08 08:14:56;;;;;;;10.15;3.78;;;21.10;52.80;;;;;;5089900;28;20499;-74
2023/05/08 08:17:22;;;;;;;8.32;4.18;;;21.10;52.70;;;;;;5091198;28;20036;-74
2023/05/08 08:19:48;;;;;;;6.60;3.70;;;21.10;52.70;;;;;;5091227;28;20028;-74
2023/05/08 08:22:14;;;;;;;8.45;3.92;;;21.10;52.80;;;;;;5090892;28;20390;-73
2023/05/08 08:24:40;;;;;;;7.22;3.90;;;21.10;52.70;;;;;;5091161;28;20028;-76
2023/05/08 08:27:07;;;;;;;7.85;3.83;;;21.10;52.70;;;;;;5091169;28;20107;-76
2023/05/08 08:29:33;;;;;;;5.55;3.30;;;21.10;52.70;;;;;;5091042;28;20044;-76
2023/05/08 08:31:59;;;;;;;8.80;3.90;;;21.10;52.70;;;;;;5090681;28;20035;-76
2023/05/08 08:34:25;;;;;;;6.53;4.05;;;21.10;52.70;;;;;;5091129;28;20111;-77
2023/05/08 08:36:51;;;;;;;6.80;3.70;;;21.10;52.00;;;;;;5090989;28;20111;-76
2023/05/08 08:39:17;;;;;;;7.80;4.00;;;21.10;52.60;;;;;;5091022;28;20059;-76
2023/05/08 08:41:42;;;;;;;8.65;3.72;;;21.10;52.60;;;;;;5090985;28;20103;-76
2023/05/08 08:44:08;;;;;;;7.97;3.97;;;21.10;52.60;;;;;;5094901;28;20028;-75
2023/05/08 08:46:38;;;;;;;8.48;4.07;;;21.10;52.70;;;;;;5094836;28;20100;-75
2023/05/08 08:49:07;;;;;;;;;;;21.10;52.60;;;;;;5095441;28;20098;-75
2023/05/08 08:51:44;;;;;;;7.57;3.70;;;21.10;52.60;;;;;;5094446;28;19912;-75
2023/05/08 08:54:12;;;;;;;6.60;3.78;;;21.10;52.60;;;;;;5094843;28;20495;-75
2023/05/08 08:56:43;;;;;;;7.72;4.03;;;21.10;52.50;;;;;;5094691;28;20469;-75
2023/05/08 08:59:10;;;;;;;9.63;4.00;;;21.20;52.50;;;;;;5093707;28;20509;-75
2023/05/08 09:01:39;;;;;;;11.10;4.30;;;21.20;52.50;;;;;;5094272;28;20020;-75
2023/05/08 09:04:06;;;;;;;6.93;4.00;;;21.10;52.60;;;;;;5094779;28;20032;-76
2023/05/08 09:06:36;;;;;;;7.53;4.60;;;21.10;52.40;;;;;;5093293;28;20389;-76
2023/05/08 09:09:03;;;;;;;7.00;4.10;;;21.10;52.30;;;;;;5094402;28;20027;-76
2023/05/08 09:11:29;;;;;;;6.80;4.10;;;21.20;52.40;;;;;;5092992;28;20088;-75
2023/05/08 09:13:56;;;;;;;6.75;3.97;;;21.20;52.40;;;;;;5094422;28;20024;-75
2023/05/08 09:16:23;;;;;;;6.43;3.88;;;21.20;52.30;;;;;;5094268;28;20106;-75
2023/05/08 09:18:49;;;;;;;7.65;4.05;;;21.20;52.40;;;;;;5094719;28;20082;-75
2023/05/08 09:21:15;;;;;;;8.40;4.05;;;21.10;52.30;;;;;;5093873;28;20470;-76
2023/05/08 09:24:16;;;;;;;8.82;4.15;;;21.20;52.40;;;;;;5094105;28;20099;-75
2023/05/08 09:26:42;;;;;;;8.07;3.83;;;21.20;52.40;;;;;;5054697;28;20401;-75
2023/05/08 09:29:14;;;;;;;11.73;4.43;;;21.20;52.60;;;;;;5089572;28;20032;-75
2023/05/08 09:31:59;;;;;;;7.63;3.75;;;21.20;52.60;;;;;;5093570;28;20485;-75
2023/05/08 09:34:27;;;;;;;8.68;4.40;;;21.20;52.60;;;;;;5094060;28;20098;-75
2023/05/08 09:37:11;;;;;;;7.40;3.90;;;21.20;52.60;;;;;;5092664;28;20485;-76
2023/05/08 09:39:40;;;;;;;8.43;4.43;;;21.20;52.50;;;;;;5092897;28;20393;-75
2023/05/08 09:42:06;;;;;;;7.27;3.93;;;21.20;52.60;;;;;;5093513;28;20030;-76
2023/05/08 09:44:45;;;;;;;9.07;3.97;;;21.20;52.40;;;;;;5093818;28;20103;-77
2023/05/08 09:47:15;;;;;;;7.47;4.22;;;21.20;52.40;;;;;;5093797;28;20028;-76
2023/05/08 09:50:01;;;;;;;6.43;3.85;;;21.20;52.70;;;;;;5092491;28;20554;-79
2023/05/08 09:52:28;;;;;;;8.68;4.40;;;21.20;52.70;;;;;;5092988;28;20493;-79
2023/05/08 09:54:58;;;;;;;7.63;4.15;;;21.20;52.60;;;;;;5093644;28;20032;-77
2023/05/08 09:57:29;;;;;;;10.10;4.10;;;21.20;52.60;;;;;;5092472;28;20035;-76
2023/05/08 10:00:13;;;;;;;6.78;3.42;;;21.20;52.60;;;;;;5092160;28;20028;-77
2023/05/08 10:02:40;;;;;;;7.38;3.97;;;21.20;52.70;;;;;;5075237;28;20040;-78
2023/05/08 10:05:30;;;;;;;6.75;4.18;;;21.20;52.70;;;;;;5092398;28;20035;-78
2023/05/08 10:07:57;;;;;;;10.88;4.15;;;21.20;52.60;;;;;;5092250;28;20039;-77
2023/05/08 10:10:29;;;;;;;6.90;4.00;;;21.20;52.70;;;;;;5093228;28;20032;-78
2023/05/08 10:12:56;;;;;;;7.22;3.70;;;21.20;52.70;;;;;;5093132;28;20031;-76
2023/05/08 10:15:26;;;;;;;8.63;3.72;;;21.20;52.70;;;;;;5093271;28;20382;-77
2023/05/08 10:18:01;;;;;;;8.40;4.30;;;21.20;52.60;;;;;;5093203;28;20040;-77
2023/05/08 10:20:30;;;;;;;10.15;4.22;;;21.20;52.50;;;;;;5092015;28;20032;-76
2023/05/08 10:22:56;;;;;;;8.38;4.00;;;21.20;52.50;;;;;;5091572;28;20541;-79
2023/05/08 10:25:24;;;;;;;8.98;4.22;;;21.20;52.50;;;;;;5092922;28;20054;-76
2023/05/08 10:28:22;;;;;;;7.75;4.10;;;21.20;52.50;;;;;;5091757;28;20039;-76
2023/05/08 10:30:48;;;;;;;6.70;3.63;;;21.20;52.50;;;;;;5073161;28;20150;-74
2023/05/08 10:33:19;;;;;;;9.93;4.22;;;21.20;52.50;;;;;;5092916;28;20023;-75
2023/05/08 10:35:46;;;;;;;8.30;3.90;;;21.20;52.40;;;;;;5091739;28;20028;-75
2023/05/08 10:38:15;;;;;;;18.08;5.13;;;21.20;52.60;;;;;;5092804;28;20097;-75
2023/05/08 10:40:41;;;;;;;8.70;3.85;;;21.20;52.90;;;;;;5091433;28;20453;-74
2023/05/08 10:43:08;;;;;;;16.50;4.05;;;21.20;50.20;;;;;;5092359;28;20095;-73
2023/05/08 10:45:35;;;;;;;9.48;3.42;;;21.10;49.30;;;;;;5092727;28;20027;-74
2023/05/08 10:48:07;;;;;;;12.35;3.75;;;21.10;48.60;;;;;;5092552;28;20024;-75
2023/05/08 10:50:48;;;;;;;11.57;3.90;;;21.00;47.90;;;;;;5092531;28;20039;-75
2023/05/08 10:53:32;;;;;;;7.20;3.22;;;21.00;47.10;;;;;;5091170;28;20028;-75
2023/05/08 10:55:58;;;;;;;12.90;3.58;;;21.00;48.10;;;;;;5092495;28;20028;-75
2023/05/08 10:58:32;;;;;;;6.20;2.95;;;21.00;47.80;;;;;;5092336;28;20024;-76
2023/05/08 11:00:58;;;;;;;11.68;3.13;;;21.00;45.40;;;;;;5092026;28;20154;-75
2023/05/08 11:03:28;;;;;;;7.45;2.92;;;21.10;46.30;;;;;;5090638;28;20095;-75
2023/05/08 11:05:55;;;;;;;6.35;2.65;;;21.10;47.40;;;;;;5089334;28;20117;-74
2023/05/08 11:08:24;;;;;;;5.63;2.72;;;21.10;45.00;;;;;;5085014;28;20051;-75
2023/05/08 11:11:16;;;;;;;5.10;3.08;;;21.00;45.50;;;;;;5091648;28;20453;-75
2023/05/08 11:14:07;;;;;;;4.78;2.42;;;21.00;44.10;;;;;;5091044;28;20149;-89
2023/05/08 11:17:00;;;;;;;6.90;2.55;;;20.90;42.60;;;;;;5090967;28;20031;-82
2023/05/08 11:19:27;;;;;;;9.55;2.67;;;20.90;41.70;;;;;;5089393;28;20553;-87
2023/05/08 11:22:15;;;;;;;6.50;2.55;;;20.90;41.60;;;;;;5060240;23;20056;-81
2023/05/08 11:25:11;;;;;;;7.07;2.63;;;20.90;41.00;;;;;;5067862;28;20063;-80
2023/05/08 11:28:03;;;;;;;8.55;3.00;;;20.90;40.10;;;;;;5069234;28;20028;-81
2023/05/08 11:30:32;;;;;;;16.98;2.97;;;20.90;40.90;;;;;;5059357;28;20406;-86
2023/05/08 11:33:03;;;;;;;4.72;2.42;;;20.80;35.60;;;;;;5053591;28;20436;-75
2023/05/08 11:35:54;;;;;;;11.75;2.55;;;20.50;36.10;;;;;;5071237;28;20036;-74
2023/05/08 11:38:31;;;;;;;7.05;2.60;;;20.60;36.40;;;;;;5071049;28;20040;-74
2023/05/08 11:41:01;;;;;;;9.73;2.53;;;20.60;37.40;;;;;;5069451;28;20032;-71
2023/05/08 11:43:34;;;;;;;4.22;2.30;;;20.70;37.50;;;;;;5070092;28;20474;-71
2023/05/08 11:46:07;;;;;;;7.82;2.38;;;20.70;37.20;;;;;;5066962;28;20033;-72
2023/05/08 11:48:34;;;;;;;7.60;2.58;;;20.80;38.00;;;;;;5069919;28;20466;-72
2023/05/08 11:51:01;;;;;;;5.00;2.50;;;20.80;38.20;;;;;;5069762;28;20669;-72
2023/05/08 11:53:29;;;;;;;6.25;2.58;;;20.80;38.90;;;;;;5071438;28;20058;-71
2023/05/08 11:55:55;;;;;;;5.38;2.60;;;20.80;38.30;;;;;;5069990;28;20489;-72
2023/05/08 11:58:20;;;;;;;3.70;2.50;;;20.90;38.70;;;;;;5070065;28;20020;-72
2023/05/08 12:00:47;;;;;;;19.00;2.47;;;20.90;38.70;;;;;;5069852;28;20367;-72
2023/05/08 12:03:18;;;;;;;3.45;2.53;;;20.90;38.80;;;;;;5071052;28;20363;-72
2023/05/08 12:05:44;;;;;;;5.70;2.50;;;20.90;39.00;;;;;;5070012;28;20093;-71
2023/05/08 12:08:11;;;;;;;5.97;2.42;;;20.90;39.60;;;;;;5069868;28;20667;-72
2023/05/08 12:10:52;;;;;;;5.93;2.55;;;20.90;39.00;;;;;;5069961;28;20112;-71
2023/05/08 12:13:25;;;;;;;4.22;2.40;;;20.90;39.20;;;;;;5071281;28;20605;-72
2023/05/08 12:15:55;;;;;;;6.95;1.98;;;20.90;39.20;;;;;;5071649;28;20032;-71
2023/05/08 12:18:22;;;;;;;5.57;2.20;;;20.90;39.20;;;;;;5074092;28;20029;-70
2023/05/08 12:20:56;;;;;;;4.35;2.33;;;20.90;39.30;;;;;;5056852;28;20112;-71
2023/05/08 12:23:26;;;;;;;4.57;2.20;;;20.90;39.40;;;;;;5075205;28;20048;-71
2023/05/08 12:25:53;;;;;;;6.88;2.40;;;20.90;39.40;;;;;;5073930;28;20031;-71
2023/05/08 12:28:19;;;;;;;6.03;2.25;;;20.90;39.40;;;;;;5075045;28;20055;-71
2023/05/08 12:30:45;;;;;;;5.22;1.95;;;20.90;39.50;;;;;;5057082;28;20040;-71
2023/05/08 12:33:11;;;;;;;4.38;2.15;;;20.90;39.40;;;;;;5074660;28;20024;-72
2023/05/08 12:35:38;;;;;;;4.40;2.13;;;20.90;39.40;;;;;;5074996;28;20039;-74
2023/05/08 12:38:06;;;;;;;3.30;2.33;;;20.90;39.70;;;;;;5074863;28;20028;-72
2023/05/08 12:40:34;;;;;;;4.28;2.10;;;20.90;39.60;;;;;;5074659;28;20029;-72
2023/05/08 12:43:01;;;;;;;3.83;2.22;;;20.90;39.40;;;;;;5073211;28;20055;-71
2023/05/08 12:45:29;;;;;;;5.40;2.40;;;20.90;39.60;;;;;;5074734;28;20106;-71
2023/05/08 12:48:04;;;;;;;5.20;2.13;;;20.90;39.70;;;;;;5073554;28;20123;-71
2023/05/08 12:50:37;;;;;;;5.47;2.22;;;20.90;39.70;;;;;;5074550;28;20033;-72
2023/05/08 12:53:05;;;;;;;3.75;2.30;;;20.90;39.50;;;;;;5073047;28;20103;-72
2023/05/08 12:55:32;;;;;;;7.78;2.35;;;20.90;39.90;;;;;;5074543;28;20440;-72
2023/05/08 12:58:13;;;;;;;6.25;2.22;;;20.90;39.70;;;;;;5073055;28;20048;-71
2023/05/08 13:00:48;;;;;;;4.60;1.90;;;20.90;39.80;;;;;;5074316;28;20037;-71